Panagiotis Karelis

Recruteur en chef - PAOK
5 Déc 2027
Dimanche
Processus

Personnalité

Adaptabilité (10) Ambition (18) Controverse (6) Loyauté (12) Pression (7) Professionnalisme (7) Sportivité (18) Tempérament (8)

Profil

Style d'entraînement Démocratique
Diplôme National A
Détermination 12
Gestion des joueurs 7
Motivation 11
Discipline 9
Satisfaction professionnelle
92%
Fatigue
0%
Rôle Recruteur en chef
Salaire 83.0K p/s
Contrat 14.03.2030

Performance

Comportement Bon
Efficacité de l'entraînement
44%
Développement des joueurs
35%
Prévention des blessures
25%
Mise en place tactique
45%

Événements récents

A participé à une réunion de recrutement maintenant
A recommandé une cible de transfert maintenant
A recommandé une cible de transfert maintenant
A recommandé une cible de transfert maintenant
A recommandé une cible de transfert maintenant
A recommandé une cible de transfert maintenant
A participé à une réunion de recrutement maintenant
A évalué un joueur maintenant

Suivi en cours

346
Joueur Club Statut Capacité Confiance Observé Dernière observation Dernier vote
Christos Mouzakitis Hull City Actif 138 / 144 40% 15 04.12.2027 -
Joel Ezra Enyimba Actif 93 / 92 40% 13 04.12.2027 -
Felipe Obradovich Lanús Actif 104 / 107 40% 6 03.12.2027 -
Ayyoub Bouaddi Luton Town Actif 144 / 154 40% 3 03.12.2027 -
Ayden Heaven Blackpool Actif 150 / 144 40% 3 03.12.2027 -
Mauro Carrizo Atlético Tucumán Actif 106 / 97 40% 5 01.12.2027 -
Ignacio Fernández Boston River Actif 93 / 98 40% 2 01.12.2027 -
Héctor Fort Real Sociedad Actif 136 / 146 40% 1 01.12.2027 -
Lautaro Dufur Rentistas Actif 102 / 114 40% 4 29.11.2027 -
Enoch Mastoras AZ Actif 128 / 138 40% 1 29.11.2027 -
Tyson Pearce St. Louis CITY SC Actif 94 / 102 40% 5 26.11.2027 -
Josh Nichols Oldham Athletic Actif 116 / 124 40% 5 26.11.2027 -
Azizbek To'lqinbekov Bunyodkor Actif 91 / 108 40% 4 24.11.2027 -
Izan Merino Málaga Actif 130 / 133 40% 3 24.11.2027 -
Vinícius Lira Sport Recife Actif 116 / 130 40% 1 24.11.2027 -
Juan Giménez Rayo Vallecano Actif 119 / 118 40% 8 23.11.2027 -
Uche Jaguar Kwara United Actif 88 / 98 40% 5 23.11.2027 -
Dmitry Pestryakov Spartak Moscow Actif 114 / 121 40% 1 23.11.2027 -
Olaniyi Saheed Kwara United Actif 99 / 101 40% 6 19.11.2027 -
Sebastián Arancibia O'Higgins Actif 100 / 102 40% 6 19.11.2027 -
Oscar Steinke Brånby Hammarby Actif 101 / 119 40% 2 19.11.2027 -
Josh Acheampong Chelsea Actif 147 / 141 40% 5 18.11.2027 -
Bung Meng Freimann Luzern Actif 116 / 116 40% 1 18.11.2027 -
Ollie Scarles West Ham United Actif 138 / 134 40% 6 17.11.2027 -
Jim Thwaites Gillingham Actif 111 / 114 40% 1 17.11.2027 -
Veljko Milosavljević Newcastle United Actif 145 / 147 40% 7 16.11.2027 -
Ignacio Pérez Huachipato Actif 102 / 109 40% 1 16.11.2027 -
Alejandro Almaraz Eibar Actif 121 / 126 40% 3 15.11.2027 -
Kenan Busuladžić AIK Actif 118 / 130 40% 1 15.11.2027 -
Honest Ahanor Atalanta Actif 132 / 136 40% 1 11.11.2027 -
Ronan Kpakio Grimsby Town Actif 123 / 118 40% 2 10.11.2027 -
Kaick New York Red Bulls Actif 109 / 100 40% 3 09.11.2027 -
Juan Manuel Villalba Tigre Actif 122 / 125 40% 6 07.11.2027 -
Mikkel Hope Haugesund Actif 102 / 95 40% 3 07.11.2027 -
Josh King Charlton Athletic Actif 148 / 144 40% 3 05.11.2027 -
Giovanni Leoni Bradford City Actif 137 / 148 40% 3 02.11.2027 -
Adrian Skogmar Malmo FF Actif 113 / 118 40% 3 01.11.2027 -
Jaydee Canvot Crystal Palace Actif 135 / 151 40% 1 01.11.2027 -
Caleb Yirenkyi Coventry City Actif 143 / 144 40% 5 26.10.2027 -
Yotaro Nakajima Sanfrecce Hiroshima Actif 98 / 114 40% 2 20.10.2027 -
Máximo Munarriz San Telmo Actif 90 / 95 40% 1 20.10.2027 -
Jofre Torrents Ajax Actif 129 / 129 40% 1 20.10.2027 -
Matías Gómez Talleres Actif 110 / 121 40% 2 18.10.2027 -
Ulises Giménez River Plate Actif 114 / 121 40% 1 18.10.2027 -
Chris Rigg Sunderland Actif 135 / 145 40% 1 18.10.2027 -
Martim Cunha HJK Actif 105 / 102 40% 2 15.10.2027 -
Leny Yoro Manchester United Actif 152 / 146 40% 1 13.10.2027 -
Agustín Medina Athletic Bilbao Actif 123 / 127 40% 6 12.10.2027 -
Fodé Sylla Sion Actif 119 / 131 40% 1 11.10.2027 -
Sebastián Ramírez America de Cali Actif 103 / 111 40% 5 10.10.2027 -
Axel Brönner Halmstad Actif 93 / 101 40% 1 08.10.2027 -
Eliás Montiel Atlético Madrid Actif 133 / 138 40% 2 01.10.2027 -
Edvard Pettersen Sandefjord Actif 112 / 115 40% 2 27.09.2027 -
Harry Amass Manchester United Actif 136 / 142 40% 2 25.09.2027 -
Alex Tóth Bournemouth Actif 123 / 134 40% 5 22.09.2027 -
Martín Jiménez O'Higgins Actif 95 / 117 40% 1 22.09.2027 -
Yusi Real Sociedad Actif 132 / 133 40% 3 20.09.2027 -
Lewis Miley Leicester City Actif 153 / 159 40% 2 19.09.2027 -
Lucas Barrientos Los Andes Actif 95 / 93 40% 1 17.09.2027 -
Agustín Obregón River Plate Actif 111 / 126 40% 1 15.09.2027 -
Vitor Reis Manchester City Actif 140 / 148 40% 2 14.09.2027 -
Diego Cheuquepal Racing Actif 104 / 102 40% 1 13.09.2027 -
Esteban de Lima Tacuarembo Actif 92 / 86 40% 1 13.09.2027 -
Matías Argüello Libertad Actif 95 / 99 40% 1 11.09.2027 -
Halam Loboa Osasuna Actif 122 / 124 40% 1 10.09.2027 -
Alejo Fernández Temperley Actif 98 / 94 40% 2 09.09.2027 -
Alejandro Leiva Patronato Actif 99 / 108 40% 2 08.09.2027 -
Teo Rodríguez Pagano San Lorenzo Actif 121 / 114 40% 1 08.09.2027 -
Thiago Silvero Betis Actif 128 / 142 40% 3 07.09.2027 -
Alan Morinigo Olimpia Actif 116 / 117 40% 2 07.09.2027 -
Zahir Ibarra Defensa y Justicia Actif 100 / 101 40% 1 07.09.2027 -
Mbekezeli Mbokazi Chicago Fire Actif 123 / 141 40% 4 06.09.2027 -
Yoram Zague Paris Saint-Germain Actif 119 / 123 40% 2 03.09.2027 -
Germán Barbas Penarol Actif 105 / 107 40% 1 03.09.2027 -
Yannick Geiger IFK Norrkoping Actif 106 / 111 40% 2 01.09.2027 -
Stuart Hawkins Seattle Sounders Actif 102 / 110 40% 1 31.08.2027 -
Santiago Toloza O'Higgins Perdu 127 / 119 40% 1 30.08.2027 -
Antonio Galeano Remo Stars Actif 128 / 131 40% 1 30.08.2027 -
Alejo Cruz Juventud Actif 118 / 119 40% 1 30.08.2027 -
Harrison Armstrong Hull City Actif 132 / 133 40% 4 24.08.2027 -
Jovan Milosavljević Helsingborg Actif 103 / 108 40% 1 24.08.2027 -
Elmin Rastoder Panathinaikos Actif 126 / 139 40% 2 23.08.2027 -
Othmane Boussaid Panathinaikos Actif 128 / 126 40% 1 23.08.2027 -
Leonardo Mendicino Bari Actif 122 / 120 40% 1 19.08.2027 -
Bence Szakos Aris Actif 86 / 105 40% 3 18.08.2027 -
Celías Ingenthron Platense Actif 114 / 118 40% 1 18.08.2027 -
Azzedine Ounahi Panathinaikos Actif 146 / 157 40% 9 16.08.2027 -
Alexander Díaz Deportivo Riestra Actif 119 / 124 40% 1 16.08.2027 -
Javi Martínez Eibar Actif 128 / 133 40% 1 16.08.2027 -
Agustín De la Cuesta Sevilla Actif 112 / 132 40% 1 11.08.2027 -
Saba Kharebashvili Alanyaspor Actif 124 / 124 40% 1 11.08.2027 -
Johan Martínez Deportivo Cali Actif 124 / 126 40% 2 10.08.2027 -
Xavier Biscayzacú Gimnasia La Plata Actif 130 / 121 40% 1 10.08.2027 -
Ignacio Aliseda Cerro Porteno Actif 130 / 132 40% 1 10.08.2027 -
Kristoffer Lund Birmingham Actif 138 / 134 40% 6 08.08.2027 -
João Fonseca Benfica Actif 112 / 108 40% 2 08.08.2027 -
Issa Kaboré Wrexham Actif 143 / 143 40% 2 06.08.2027 -
Cian Ashford Cardiff City Actif 117 / 122 40% 1 06.08.2027 -
Tom Fellows Southampton Actif 139 / 127 40% 1 06.08.2027 -
Alex Lowry Wycombe Wanderers Actif 117 / 126 40% 1 05.08.2027 -
Giorgi Chakvetadze Watford Actif 128 / 123 40% 2 04.08.2027 -
Ra'ees Bangura-Williams Millwall Actif 120 / 128 40% 1 04.08.2027 -
Adrià Altimira Deportivo La Coruña Actif 134 / 144 40% 13 03.08.2027 -
Jason Knight Bristol City Actif 140 / 125 40% 2 03.08.2027 -
Stanley Mills Oxford United Actif 130 / 123 40% 1 03.08.2027 -
Tyrese Campbell Sheffield United Actif 138 / 125 40% 6 02.08.2027 -
Tariq Lamptey Queens Park Rangers Actif 135 / 134 40% 6 02.08.2027 -
Caspar Jander Southampton Actif 138 / 139 40% 5 02.08.2027 -
Milan van Ewijk Coventry City Actif 132 / 135 40% 8 01.08.2027 -
Caolan Boyd-Munce Wycombe Wanderers Actif 121 / 122 40% 4 01.08.2027 -
Jonathan Varane Queens Park Rangers Actif 134 / 128 40% 2 01.08.2027 -
Shea Lacey Hull City Actif 124 / 131 40% 2 31.07.2027 -
Guille Rosas Gijón Actif 148 / 147 40% 5 30.07.2027 -
Bosun Lawal Stoke City Actif 131 / 127 40% 5 30.07.2027 -
Andrea Cogoni Cosenza Actif 98 / 99 40% 1 29.07.2027 -
Facundo Pellistri Panathinaikos Actif 132 / 139 40% 2 28.07.2027 -
Haissem Hassan Bloemfontein Celtic Actif 133 / 130 40% 4 26.07.2027 -
Harry Clarke Preston Actif 129 / 137 40% 3 26.07.2027 -
Relebohile Mofokeng Orlando Pirates Actif 127 / 135 40% 2 24.07.2027 -
Othmane Maamma Watford Actif 129 / 139 40% 2 24.07.2027 -
Bobby Clark Derby County Actif 132 / 134 40% 1 24.07.2027 -
Jovon Makama Norwich City Actif 130 / 131 40% 1 23.07.2027 -
Ali Ahmed Norwich City Actif 132 / 120 40% 2 22.07.2027 -
Miguel Rodríguez Caracas Actif 132 / 123 40% 1 22.07.2027 -
Finn Azaz Southampton Actif 132 / 136 40% 3 21.07.2027 -
Welington Southampton Actif 130 / 128 40% 6 21.07.2027 -
Louie Barry Sheffield Wednesday Actif 123 / 134 40% 1 20.07.2027 -
Melker Widell Swansea City Actif 121 / 124 40% 1 19.07.2027 -
Nicolás Bolcato Independiente Rivadavia Actif 113 / 115 40% 1 19.07.2027 -
Nikos Christogeorgos OFI Actif 114 / 117 40% 1 19.07.2027 -
Zach Hemming Chesterfield Actif 112 / 108 40% 1 19.07.2027 -
Lennon Miller AC Milan Actif 139 / 132 40% 5 17.07.2027 -
Vanja Dragojević Partizan Actif 123 / 113 40% 1 17.07.2027 -
Panagiotis Markou Doxa Actif 92 / 85 40% 3 15.07.2027 -
Eduardo Felicíssimo Sporting CP Actif 121 / 122 40% 3 15.07.2027 -
Ronald Swansea City Actif 133 / 128 40% 4 12.07.2027 -
Max Arfsten Middlesbrough Actif 132 / 134 40% 4 12.07.2027 -
Koki Saito Queens Park Rangers Actif 127 / 133 40% 1 12.07.2027 -
Samuel Lucero Defensa y Justicia Actif 120 / 126 40% 3 11.07.2027 -
Sonny Carey Charlton Athletic Actif 119 / 126 40% 1 08.07.2027 -
Vasco Santos Oliveirense Actif 95 / 100 40% 3 05.07.2027 -
Jonathan De Irastorza Levante Actif 121 / 124 40% 4 02.07.2027 -
Daniel Vernattus Metalist Actif 93 / 105 40% 1 01.07.2027 -
Tommaso Cecotti Carpi Actif 100 / 95 40% 6 30.06.2027 -
Mattia Puzone Siracusa Actif 97 / 113 40% 1 29.06.2027 -
Christ Inao Oulaï Fiorentina Actif 142 / 137 40% 1 28.06.2027 -
Victor Ehibe Ashanti Gold Actif 84 / 99 40% 1 26.06.2027 -
Daniel Dennis Ikorodu City Actif 88 / 96 40% 1 25.06.2027 -
Rhys Chadwick Burton Albion Actif 97 / 111 40% 2 24.06.2027 -
Luther Kekana SuperSport United Actif 91 / 126 40% 3 24.06.2027 -
Finley McAllister Wigan Athletic Actif 87 / 88 40% 1 24.06.2027 -
Sascha Britschgi Cosenza Actif 124 / 122 40% 1 22.06.2027 -
Bernardo Lima Porto Actif 100 / 117 40% 1 22.06.2027 -
Ronwen Vilakazi Ajax Cape Town Actif 90 / 107 40% 1 19.06.2027 -
João Capucho Benfica Actif 103 / 102 40% 1 18.06.2027 -
Tom Atcheson Crewe Alexandra Actif 114 / 115 40% 1 17.06.2027 -
Olalekan Adeleke Remo Stars Actif 82 / 92 40% 1 16.06.2027 -
Kermit Ngcobo Free State Stars Actif 88 / 90 40% 2 13.06.2027 -
Maeson King Barnsley Actif 110 / 112 40% 1 12.06.2027 -
Brodie Spencer Oxford United Actif 124 / 132 40% 6 05.06.2027 -
Joel McGregor Swindon Town Actif 91 / 107 40% 2 05.06.2027 -
Riley Owen Peterborough United Actif 97 / 115 40% 1 05.06.2027 -
George Earthy Reading Actif 121 / 132 40% 1 05.06.2027 -
Cristian Shpendi Cesena Actif 133 / 136 40% 1 05.06.2027 -
Abdoulaye Kanté Al-Ettifaq Actif 109 / 124 40% 1 02.06.2027 -
Nikos Christogeorgos OFI Perdu 117 / 112 40% 1 01.06.2027 -
Michael Cooper Sheffield United Actif 135 / 138 40% 1 01.06.2027 -
Mostafa Mohamed Konyaspor Actif 130 / 128 40% 1 31.05.2027 -
Giovane Napoli Actif 137 / 130 40% 1 31.05.2027 -
Habib Diarra Sunderland Actif 144 / 134 40% 9 29.05.2027 -
Luke McNally Bristol City Actif 132 / 129 40% 7 29.05.2027 -
Luca Connell Barnsley Actif 111 / 118 40% 5 29.05.2027 -
Ben Nelson Leicester City Actif 138 / 127 40% 5 28.05.2027 -
Kellen Fisher Norwich City Actif 119 / 115 40% 2 28.05.2027 -
Aidan Morris Middlesbrough Actif 128 / 136 40% 1 28.05.2027 -
Brayann Pereira West Bromwich Albion Actif 120 / 129 40% 1 28.05.2027 -
Florentino Luís Ipswich Town Actif 139 / 148 40% 7 27.05.2027 -
Kamogelo Sebelebele Orlando Pirates Actif 125 / 137 40% 2 27.05.2027 -
Xavier Simons Bolton Wanderers Actif 121 / 130 40% 2 27.05.2027 -
Jay McGrath Doncaster Rovers Actif 108 / 106 40% 3 27.05.2027 -
Márk Kosznovszky Portsmouth Actif 118 / 110 40% 1 27.05.2027 -
Di'Shon Bernard Sheffield Wednesday Actif 126 / 126 40% 3 26.05.2027 -
Álvaro Carrillo APOEL Actif 114 / 130 40% 6 25.05.2027 -
Justin Devenny Stoke City Actif 125 / 128 40% 2 25.05.2027 -
Adam Randell Bristol City Actif 128 / 120 40% 1 25.05.2027 -
Mattie Pollock Watford Actif 120 / 118 40% 1 25.05.2027 -
Tim Iroegbunam Hull City Actif 141 / 141 40% 5 24.05.2027 -
Harrison Burrows Sheffield United Actif 122 / 127 40% 6 24.05.2027 -
Edoardo Bove Watford Actif 135 / 128 40% 3 24.05.2027 -
Victor Kristiansen Leicester City Actif 125 / 126 40% 4 23.05.2027 -
Daniel Phillips Stevenage Actif 109 / 111 40% 1 23.05.2027 -
Pelle Mattsson Norwich City Actif 123 / 126 40% 1 19.05.2027 -
Jacques Ekomié Wrexham Actif 126 / 122 40% 6 17.05.2027 -
Ronnie Edwards Queens Park Rangers Actif 134 / 130 40% 3 17.05.2027 -
Toby Collyer West Bromwich Albion Actif 133 / 130 40% 2 17.05.2027 -
Radek Vítek Middlesbrough Actif 138 / 147 40% 3 16.05.2027 -
Melker Ellborg Sunderland Actif 129 / 117 40% 9 16.05.2027 -
Emanuel Aiwu Apollon Actif 125 / 127 40% 3 16.05.2027 -
Joseph Sulemana WAFA Actif 108 / 102 40% 1 16.05.2027 -
Joel Bagan Cardiff City Actif 112 / 123 40% 3 15.05.2027 -
Filippo Ranocchia Palermo Actif 133 / 131 40% 4 15.05.2027 -
Liberato Cacace Wrexham Actif 131 / 128 40% 1 15.05.2027 -
Mandla Phiri SuperSport United Actif 130 / 122 40% 2 14.05.2027 -
Lorenzo Amatucci Deportivo La Coruña Actif 132 / 137 40% 1 14.05.2027 -
Yasin Ayari Brighton Actif 147 / 146 40% 3 10.05.2027 -
Max Bird Birmingham Actif 131 / 126 40% 2 09.05.2027 -
Ivan Varfolomeev Lincoln City Actif 108 / 108 40% 1 08.05.2027 -
Tommaso Barbieri Cremonese Actif 136 / 124 40% 1 08.05.2027 -
Danilo Veiga Lecce Actif 121 / 120 40% 1 08.05.2027 -
Hans Nicolussi Caviglia Parma Actif 137 / 125 40% 1 07.05.2027 -
Anselmo García Mac Nulty Bolton Wanderers Actif 117 / 117 40% 1 06.05.2027 -
Harvey White Stevenage Actif 121 / 121 40% 2 04.05.2027 -
Jacob Greaves Ipswich Town Actif 138 / 143 40% 4 03.05.2027 -
Michael Baidoo Plymouth Argyle Actif 122 / 117 40% 2 01.05.2027 -
Ethan Galbraith Swansea City Actif 140 / 140 40% 5 30.04.2027 -
Lewis Bate Stockport County Actif 116 / 114 40% 3 29.04.2027 -
Leighton Clarkson Blackpool Actif 119 / 109 40% 1 29.04.2027 -
Bobby Thomas Coventry City Actif 127 / 133 40% 3 28.04.2027 -
Tristan Crama Millwall Actif 122 / 129 40% 5 27.04.2027 -
Lewis Gibson Preston Actif 128 / 119 40% 2 27.04.2027 -
Josh Doig Sassuolo Actif 131 / 130 40% 1 27.04.2027 -
Saša Lukić Ipswich Town Actif 135 / 146 40% 1 25.04.2027 -
Nobel Mendy Hull City Actif 129 / 132 40% 2 22.04.2027 -
Imrân Louza Watford Actif 127 / 123 40% 2 21.04.2027 -
Noah Fadiga Aris Thessaloniki Actif 110 / 125 40% 3 21.04.2027 -
Teden Mengi Luton Town Actif 124 / 129 40% 4 20.04.2027 -
Jack Currie Oxford United Actif 121 / 127 40% 2 14.04.2027 -
Nicolas Madsen Queens Park Rangers Actif 134 / 129 40% 2 13.04.2027 -
Charalabos Charalabous Aris Actif 114 / 124 40% 2 09.04.2027 -
Máximo Perrone Como Actif 149 / 139 40% 1 09.04.2027 -
Vasilis Zagaritis Heerenveen Actif 124 / 115 40% 1 08.04.2027 -
Nathan Moriah-Welsh Mansfield Town Actif 111 / 113 40% 1 06.04.2027 -
Giorgos Liavas Rio Ave Actif 112 / 109 40% 1 04.04.2027 -
Mateja Milovanović Partizan Actif 125 / 120 40% 1 04.04.2027 -
Samuele Angori Pisa Actif 131 / 143 40% 1 31.03.2027 -
Samú Al-Nassr Actif 140 / 157 40% 1 30.03.2027 -
Mehdi Dorval Catanzaro Actif 125 / 127 40% 1 30.03.2027 -
Reuell Walters Luton Town Actif 107 / 114 40% 1 22.03.2027 -
Adrián Bernabé Parma Actif 137 / 141 40% 3 21.03.2027 -
Alfie Doughty Millwall Actif 132 / 123 40% 1 21.03.2027 -
Brooke Norton-Cuffy Hull City Actif 136 / 131 40% 2 18.03.2027 -
Anel Ahmedhodžić Burnley Actif 139 / 135 40% 1 18.03.2027 -
Gustavo Assunção Apollon Actif 104 / 107 40% 1 12.03.2027 -
Kings Kangwa Panathinaikos Actif 135 / 132 40% 1 09.03.2027 -
Ahmed Al-Nakhli Al-Hazem Actif 110 / 98 40% 1 07.03.2027 -
Matteo Rizzo Cosenza Actif 112 / 115 40% 2 05.03.2027 -
Josh Keeley Luton Town Actif 129 / 118 40% 5 05.03.2027 -
Heorhii Yermakov Metalist Actif 111 / 119 40% 4 28.02.2027 -
Răzvan Sava Universitatea Craiova Actif 121 / 117 40% 2 28.02.2027 -
Jan Koutný Sigma Olomouc Actif 107 / 113 40% 3 28.02.2027 -
Francesco D'Alterio Ternana Perdu 102 / 115 40% 5 26.02.2027 -
Nikita Kokarev Krylya Sovetov Actif 111 / 123 40% 5 26.02.2027 -
Ludovico Del Sorbo Sorrento Actif 108 / 112 40% 2 26.02.2027 -
James Trafford Leeds United Actif 140 / 135 40% 3 25.02.2027 -
Mohammad Mehdi Mohebi Persepolis Actif 129 / 111 40% 2 24.02.2027 -
Adam Hrdina Zbrojovka Brno Actif 108 / 107 40% 5 24.02.2027 -
Esequiel Barco Spartak Moscow Actif 146 / 135 40% 2 23.02.2027 -
Cesare Galeotti Trapani Actif 106 / 102 40% 3 20.02.2027 -
Senne Lammens AS Roma Actif 146 / 160 40% 4 20.02.2027 -
Sergio Barlocco Trento Actif 115 / 106 40% 3 18.02.2027 -
Elia Summa Picerno Actif 117 / 107 40% 4 17.02.2027 -
Samuele Vitale Ascoli Perdu 112 / 103 40% 2 17.02.2027 -
Efraín Álvarez Udinese Actif 139 / 131 40% 3 16.02.2027 -
Svetoslav Vutsov Levski Actif 132 / 121 40% 5 16.02.2027 -
Hélio Varela Maccabi Tel Aviv Actif 130 / 123 40% 1 16.02.2027 -
Tshepang Moremi Orlando Pirates Actif 112 / 117 40% 1 16.02.2027 -
Marquinhos Spartak Moscow Actif 133 / 129 40% 2 15.02.2027 -
Kwadwo Baah Watford Actif 125 / 134 40% 1 15.02.2027 -
Ali Youssef Apollon Actif 120 / 124 40% 1 15.02.2027 -
Jota Silva Dynamo Kyiv Actif 132 / 136 40% 7 14.02.2027 -
Petar Stanić Ludogorets Actif 130 / 144 40% 1 14.02.2027 -
Tomáš Frühwald Bohemians 1905 Actif 120 / 112 40% 1 10.02.2027 -
Alexandr Koryakin Krasnodar Actif 109 / 121 40% 4 07.02.2027 -
Egoitz Arana Real Sociedad Actif 99 / 97 40% 3 06.02.2027 -
Oleksandr Saputin Zorya Actif 107 / 122 40% 2 31.01.2027 -
Morteza Azmoun Padideh Actif 93 / 103 40% 1 29.01.2027 -
Daniel Kyerewaa Reading Actif 117 / 109 40% 2 25.01.2027 -
Amar Memić Viktoria Plzen Actif 126 / 130 40% 1 25.01.2027 -
Edoardo Motta Lazio Actif 116 / 119 40% 2 23.01.2027 -
Killian Cahill Leyton Orient Actif 106 / 96 40% 2 23.01.2027 -
Santino Barbi Talleres Actif 113 / 114 40% 1 22.01.2027 -
Luka Lijeskić Radnicki 1923 Actif 111 / 109 40% 2 19.01.2027 -
Strahinja Manojlović Radnicki Nis Actif 105 / 111 40% 1 18.01.2027 -
Filip Marschall Stevenage Actif 105 / 114 40% 3 17.01.2027 -
Omar Richards Aris Thessaloniki Actif 131 / 133 69% 1 11.01.2027 Approuver
Lucas Ruiz Al Shabab Actif 121 / 100 40% 1 06.01.2027 -
Lazaros Lamprou Volos NPS Actif 122 / 107 69% 1 02.01.2027 Approuver
Konstantin Tyukavin KV Mechelen Négociation 132 / 133 66% 1 01.01.2027 Approuver
Luiz Henrique Flamengo Actif 142 / 143 68% 1 01.01.2027 Approuver
Bitello Alavés Actif 135 / 135 68% 1 01.01.2027 Approuver
Ilyas Ansah Hull City Actif 127 / 131 40% 2 31.12.2026 -
Youssef En-Nesyri Al-Ittihad Actif 134 / 126 40% 5 29.12.2026 -
Domagoj Drožđek Tractor Actif 131 / 122 40% 2 27.12.2026 -
Oli McBurnie Hull City Actif 130 / 141 40% 3 26.12.2026 -
Hwang Hee-Chan Wolverhampton Actif 139 / 125 40% 3 25.12.2026 -
Zian Flemming Ipswich Town Actif 129 / 136 40% 3 24.12.2026 -
Lazar Marković Apollon Actif 123 / 125 40% 7 23.12.2026 -
Giorgos Giakoumakis Al Ain Actif 121 / 136 40% 1 23.12.2026 -
Luka Jović AEK Actif 144 / 138 40% 5 20.12.2026 -
Julián Quiñones Al-Qadisiyah Actif 142 / 161 40% 3 15.12.2026 Observer
Haris Tabaković Red Bull Salzburg Actif 131 / 138 40% 5 13.12.2026 -
Callum O'Hare Sheffield United Actif 125 / 121 40% 1 10.12.2026 -
Konstantinos Balogiannis Apollon Actif 105 / 120 40% 1 08.12.2026 -
Zeki Amdouni Burnley Actif 138 / 127 40% 1 02.12.2026 -
Denis Bouanga Los Angeles Football Club Actif 142 / 149 40% 2 24.11.2026 -
Michalis Patiras Ryazan Actif 78 / 95 40% 2 21.11.2026 -
Eduard Spertsyan Al-Ahli Actif 143 / 141 40% 3 21.11.2026 -
George Hirst Stoke City Actif 128 / 144 40% 1 21.11.2026 -
Riqui Puig LA Galaxy Actif 138 / 120 40% 1 20.11.2026 -
Akinkunmi Amoo HNK Rijeka Actif 126 / 113 40% 1 20.11.2026 -
Christos Giousis Nea Salamis Actif 98 / 114 40% 2 18.11.2026 -
Tomáš Chorý CSKA Moscow Actif 149 / 147 40% 2 17.11.2026 -
Wessam Abou Ali Columbus Crew Actif 121 / 135 40% 6 14.11.2026 -
Germán Berterame Inter Miami CF Actif 123 / 132 40% 2 14.11.2026 -
Marcelo Allende Mamelodi Sundowns Actif 125 / 111 40% 1 09.11.2026 -
Andreas Chrysostomou Anorthosis Actif 103 / 119 40% 1 08.11.2026 -
Veljko Birmančević Ferencvaros Actif 128 / 128 40% 1 05.11.2026 -
Myrto Uzuni Austin FC Actif 137 / 131 40% 2 02.11.2026 -
Andrei Dragusin Astra Actif 125 / 137 40% 1 01.11.2026 -
Talles Magno New York City Actif 139 / 133 40% 2 28.10.2026 -
Barnabás Varga AEK Actif 133 / 135 40% 1 18.10.2026 -
Alexey Miranchuk Krasnodar Actif 145 / 143 40% 3 16.10.2026 -
Martín Ojeda Orlando City Actif 129 / 150 40% 1 16.10.2026 -
Erik Botheim Viking Actif 132 / 112 40% 1 11.10.2026 -
Felipe Augusto Zenit Actif 139 / 123 40% 2 03.10.2026 -
Maurits Kjærgaard Red Bull Salzburg Actif 130 / 142 40% 1 03.10.2026 -
Jesus Ferreira Seattle Sounders Actif 119 / 128 40% 1 30.09.2026 -
Kein Sato FC Tokyo Actif 123 / 133 40% 2 29.09.2026 -
Pep Biel Charlotte Football Club Actif 142 / 126 40% 1 28.09.2026 -
Manfred Ugalde Spartak Moscow Actif 125 / 141 40% 1 27.09.2026 -
Alexandr Sobolev Zenit Actif 126 / 135 40% 2 22.09.2026 -
Ezequiel Ávila Hapoel Tel Aviv Actif 121 / 135 40% 1 20.09.2026 -
Toni Fruk Ipswich Town Actif 139 / 126 40% 1 20.09.2026 -
Luca Langoni New England Revolution Actif 135 / 130 40% 2 18.09.2026 -
Christian Kouamé Aris Thessaloniki Actif 121 / 139 40% 2 13.09.2026 -
Miguel Romano Atletico Venezuela Actif 108 / 101 40% 1 09.09.2026 -
Elías Báez Atlanta United FC Actif 116 / 141 40% 3 08.09.2026 -
Ronald Donkor New York Red Bulls Actif 100 / 91 40% 2 08.09.2026 -
Ângelo Al-Nassr Actif 120 / 138 40% 2 06.09.2026 -
Kostas Kostoulas OFI Actif 106 / 113 40% 1 06.09.2026 -
Reed Baker-Whiting Nashville SC Actif 97 / 102 40% 1 04.09.2026 -
Nazareno Roselli Defensa y Justicia Actif 105 / 132 40% 1 01.09.2026 -
Philippe Ndinga Philadelphia Union Actif 118 / 112 40% 1 26.08.2026 -
Mamadou Sané Aris Actif 89 / 93 40% 1 26.08.2026 -
Musa Barrow Al-Khaleej Actif 127 / 129 40% 1 18.08.2026 -
Germán Valera Elche Actif 125 / 135 40% 1 02.08.2026 -